Etusivu
METAR-TAF:

METAR-TAF

Lentoasemat :

Langlade County Airport

Antigo, Wisconsin, Yhdysvallat

Leveyspiiri: 45-09-15N, Pituuspiiri: 89-06-39W, korkeus merenpinnasta: 464 m

Tämänhetkinen sää

Tämä raportti tehtiin 32 minuuttia sitten, kello 04.55 UTC
tyyntä
Lämpötila -1°C
Kosteus 93%
Ilmanpaine 1006 hPa
Näkyvyys: 16.1 km
Pilvistä 1600 ft:n korkeudessa

METAR: KAIG 190455Z AUTO 00000KT 10SM OVC016 M01/M02 A2970 RMK AO2 T10151022

Aika: 23:27 (05:27 UTC)


TAF: puuttuu

Säähavainnot ja -ennusteet yli 4000 lentoasemalta (METAR- ja TAF-raportit).

Käytössä olevat sääasemat on merkitty karttaan keltaisilla ja punaisilla pisteillä.

Aseta hiiri pisteen päälle nähdäksesi sääaseman nimen.

Klikkaa sitten nähdäksesi säähavainnot ja -ennusteet.

Kartan vaihtaminen: klikkaa mustalla rastilla varustettuja vihreitä pisteitä, niin voit zoomata sisään; viivalla varustettua vihreää pistettä, niin voit zoomata ulos tai vihreitä nuolia, niin pääset viereisille kartoille.


METAR-TAF: